sensor_id;sensor_type;location;lat;lon;timestamp;P1;durP1;ratioP1;P2;durP2;ratioP2
32096;SDS011;18610;49.916;8.284;2023-02-01T00:00:17;7.38;;;4.18;;
32096;SDS011;18610;49.916;8.284;2023-02-01T00:02:44;8.00;;;4.13;;
32096;SDS011;18610;49.916;8.284;2023-02-01T00:05:10;7.88;;;4.07;;
32096;SDS011;18610;49.916;8.284;2023-02-01T00:07:37;6.15;;;4.10;;
32096;SDS011;18610;49.916;8.284;2023-02-01T00:10:05;7.95;;;4.22;;
32096;SDS011;18610;49.916;8.284;2023-02-01T00:12:32;6.60;;;4.18;;
32096;SDS011;18610;49.916;8.284;2023-02-01T00:15:00;8.88;;;4.93;;
32096;SDS011;18610;49.916;8.284;2023-02-01T00:17:28;11.93;;;4.55;;
32096;SDS011;18610;49.916;8.284;2023-02-01T00:19:54;9.13;;;4.30;;
32096;SDS011;18610;49.916;8.284;2023-02-01T00:22:21;7.85;;;3.95;;
32096;SDS011;18610;49.916;8.284;2023-02-01T00:24:48;8.98;;;5.00;;
32096;SDS011;18610;49.916;8.284;2023-02-01T00:27:15;13.40;;;6.10;;
32096;SDS011;18610;49.916;8.284;2023-02-01T00:29:45;13.57;;;5.53;;
32096;SDS011;18610;49.916;8.284;2023-02-01T00:32:12;13.07;;;5.70;;
32096;SDS011;18610;49.916;8.284;2023-02-01T00:34:40;13.80;;;5.38;;
32096;SDS011;18610;49.916;8.284;2023-02-01T00:37:07;12.50;;;5.63;;
32096;SDS011;18610;49.916;8.284;2023-02-01T00:39:33;12.20;;;5.20;;
32096;SDS011;18610;49.916;8.284;2023-02-01T00:42:00;10.88;;;4.78;;
32096;SDS011;18610;49.916;8.284;2023-02-01T00:44:27;9.93;;;5.38;;
32096;SDS011;18610;49.916;8.284;2023-02-01T00:46:58;18.45;;;5.75;;
32096;SDS011;18610;49.916;8.284;2023-02-01T00:49:25;9.23;;;4.78;;
32096;SDS011;18610;49.916;8.284;2023-02-01T00:51:53;8.10;;;5.05;;
32096;SDS011;18610;49.916;8.284;2023-02-01T00:54:20;13.23;;;4.88;;
32096;SDS011;18610;49.916;8.284;2023-02-01T00:56:47;9.27;;;4.55;;
32096;SDS011;18610;49.916;8.284;2023-02-01T00:59:13;13.00;;;5.75;;
32096;SDS011;18610;49.916;8.284;2023-02-01T01:01:40;15.32;;;5.78;;
32096;SDS011;18610;49.916;8.284;2023-02-01T01:04:07;14.57;;;4.55;;
32096;SDS011;18610;49.916;8.284;2023-02-01T01:06:34;11.80;;;4.95;;
32096;SDS011;18610;49.916;8.284;2023-02-01T01:09:03;14.77;;;5.85;;
32096;SDS011;18610;49.916;8.284;2023-02-01T01:11:31;17.17;;;5.53;;
32096;SDS011;18610;49.916;8.284;2023-02-01T01:13:59;10.48;;;5.80;;
32096;SDS011;18610;49.916;8.284;2023-02-01T01:16:27;11.10;;;5.32;;
32096;SDS011;18610;49.916;8.284;2023-02-01T01:18:56;11.93;;;5.88;;
32096;SDS011;18610;49.916;8.284;2023-02-01T01:21:23;17.50;;;6.47;;
32096;SDS011;18610;49.916;8.284;2023-02-01T01:23:51;9.43;;;5.28;;
32096;SDS011;18610;49.916;8.284;2023-02-01T01:26:19;14.85;;;6.03;;
32096;SDS011;18610;49.916;8.284;2023-02-01T01:28:47;12.65;;;5.93;;
32096;SDS011;18610;49.916;8.284;2023-02-01T01:31:15;9.27;;;5.28;;
32096;SDS011;18610;49.916;8.284;2023-02-01T01:33:43;11.40;;;6.07;;
32096;SDS011;18610;49.916;8.284;2023-02-01T01:36:13;11.63;;;5.90;;
32096;SDS011;18610;49.916;8.284;2023-02-01T01:38:40;14.40;;;6.90;;
32096;SDS011;18610;49.916;8.284;2023-02-01T01:41:07;16.17;;;6.75;;
32096;SDS011;18610;49.916;8.284;2023-02-01T01:43:47;14.30;;;6.45;;
32096;SDS011;18610;49.916;8.284;2023-02-01T01:46:16;12.18;;;5.72;;
32096;SDS011;18610;49.916;8.284;2023-02-01T01:48:44;13.60;;;6.70;;
32096;SDS011;18610;49.916;8.284;2023-02-01T01:51:14;17.90;;;6.55;;
32096;SDS011;18610;49.916;8.284;2023-02-01T01:53:47;14.98;;;6.68;;
32096;SDS011;18610;49.916;8.284;2023-02-01T01:56:18;17.52;;;6.38;;
32096;SDS011;18610;49.916;8.284;2023-02-01T01:58:44;15.18;;;6.50;;
32096;SDS011;18610;49.916;8.284;2023-02-01T02:01:13;11.18;;;6.78;;
32096;SDS011;18610;49.916;8.284;2023-02-01T02:03:40;12.23;;;7.00;;
32096;SDS011;18610;49.916;8.284;2023-02-01T02:06:11;9.70;;;6.35;;
32096;SDS011;18610;49.916;8.284;2023-02-01T02:08:45;14.60;;;6.72;;
32096;SDS011;18610;49.916;8.284;2023-02-01T02:11:12;12.43;;;6.50;;
32096;SDS011;18610;49.916;8.284;2023-02-01T02:13:43;13.80;;;7.15;;
32096;SDS011;18610;49.916;8.284;2023-02-01T02:16:28;12.68;;;7.18;;
32096;SDS011;18610;49.916;8.284;2023-02-01T02:19:14;16.48;;;6.70;;
32096;SDS011;18610;49.916;8.284;2023-02-01T02:21:57;14.90;;;6.85;;
32096;SDS011;18610;49.916;8.284;2023-02-01T02:24:41;12.75;;;6.18;;
32096;SDS011;18610;49.916;8.284;2023-02-01T02:27:24;17.23;;;7.25;;
32096;SDS011;18610;49.916;8.284;2023-02-01T02:30:09;10.70;;;6.70;;
32096;SDS011;18610;49.916;8.284;2023-02-01T02:36:08;16.33;;;7.82;;
32096;SDS011;18610;49.916;8.284;2023-02-01T02:38:41;16.33;;;8.77;;
32096;SDS011;18610;49.916;8.284;2023-02-01T02:41:14;19.05;;;7.28;;
32096;SDS011;18610;49.916;8.284;2023-02-01T02:43:58;15.60;;;7.32;;
32096;SDS011;18610;49.916;8.284;2023-02-01T02:46:48;14.77;;;6.57;;
32096;SDS011;18610;49.916;8.284;2023-02-01T02:49:39;16.58;;;8.27;;
32096;SDS011;18610;49.916;8.284;2023-02-01T02:52:30;15.50;;;7.47;;
32096;SDS011;18610;49.916;8.284;2023-02-01T02:55:15;14.63;;;7.82;;
32096;SDS011;18610;49.916;8.284;2023-02-01T02:57:42;12.45;;;7.43;;
32096;SDS011;18610;49.916;8.284;2023-02-01T03:00:29;13.23;;;7.32;;
32096;SDS011;18610;49.916;8.284;2023-02-01T03:03:16;15.20;;;7.82;;
32096;SDS011;18610;49.916;8.284;2023-02-01T03:06:02;13.80;;;7.78;;
32096;SDS011;18610;49.916;8.284;2023-02-01T03:08:30;12.88;;;7.80;;
32096;SDS011;18610;49.916;8.284;2023-02-01T03:10:58;21.08;;;8.52;;
32096;SDS011;18610;49.916;8.284;2023-02-01T03:13:32;14.07;;;7.63;;
32096;SDS011;18610;49.916;8.284;2023-02-01T03:16:04;15.85;;;8.05;;
32096;SDS011;18610;49.916;8.284;2023-02-01T03:18:39;14.68;;;7.75;;
32096;SDS011;18610;49.916;8.284;2023-02-01T03:23:41;13.45;;;7.43;;
32096;SDS011;18610;49.916;8.284;2023-02-01T03:26:10;17.30;;;6.72;;
32096;SDS011;18610;49.916;8.284;2023-02-01T03:28:41;17.40;;;6.43;;
32096;SDS011;18610;49.916;8.284;2023-02-01T03:31:11;14.43;;;7.43;;
32096;SDS011;18610;49.916;8.284;2023-02-01T03:33:39;11.65;;;6.40;;
32096;SDS011;18610;49.916;8.284;2023-02-01T03:36:12;19.15;;;6.32;;
32096;SDS011;18610;49.916;8.284;2023-02-01T03:38:49;12.38;;;5.93;;
32096;SDS011;18610;49.916;8.284;2023-02-01T03:41:23;11.93;;;6.30;;
32096;SDS011;18610;49.916;8.284;2023-02-01T03:43:56;11.98;;;6.63;;
32096;SDS011;18610;49.916;8.284;2023-02-01T03:46:28;10.75;;;6.00;;
32096;SDS011;18610;49.916;8.284;2023-02-01T03:48:59;11.00;;;5.78;;
32096;SDS011;18610;49.916;8.284;2023-02-01T03:51:30;12.95;;;6.32;;
32096;SDS011;18610;49.916;8.284;2023-02-01T03:53:57;14.82;;;5.82;;
32096;SDS011;18610;49.916;8.284;2023-02-01T03:56:25;13.30;;;6.03;;
32096;SDS011;18610;49.916;8.284;2023-02-01T03:58:55;11.18;;;6.20;;
32096;SDS011;18610;49.916;8.284;2023-02-01T04:01:25;11.27;;;6.32;;
32096;SDS011;18610;49.916;8.284;2023-02-01T04:03:53;11.82;;;5.70;;
32096;SDS011;18610;49.916;8.284;2023-02-01T04:06:19;12.07;;;5.45;;
32096;SDS011;18610;49.916;8.284;2023-02-01T04:08:48;14.27;;;6.10;;
32096;SDS011;18610;49.916;8.284;2023-02-01T04:11:14;9.25;;;6.03;;
32096;SDS011;18610;49.916;8.284;2023-02-01T04:13:41;18.40;;;6.18;;
32096;SDS011;18610;49.916;8.284;2023-02-01T04:16:08;12.30;;;5.60;;
32096;SDS011;18610;49.916;8.284;2023-02-01T04:18:35;10.45;;;6.38;;
32096;SDS011;18610;49.916;8.284;2023-02-01T04:21:01;9.30;;;6.10;;
32096;SDS011;18610;49.916;8.284;2023-02-01T04:23:28;11.18;;;5.35;;
32096;SDS011;18610;49.916;8.284;2023-02-01T04:25:59;11.00;;;4.82;;
32096;SDS011;18610;49.916;8.284;2023-02-01T04:28:26;9.32;;;4.65;;
32096;SDS011;18610;49.916;8.284;2023-02-01T04:30:53;14.88;;;5.05;;
32096;SDS011;18610;49.916;8.284;2023-02-01T04:33:20;19.35;;;5.35;;
32096;SDS011;18610;49.916;8.284;2023-02-01T04:35:46;8.68;;;4.90;;
32096;SDS011;18610;49.916;8.284;2023-02-01T04:38:13;7.93;;;4.60;;
32096;SDS011;18610;49.916;8.284;2023-02-01T04:40:40;11.85;;;5.60;;
32096;SDS011;18610;49.916;8.284;2023-02-01T04:43:08;10.77;;;4.55;;
32096;SDS011;18610;49.916;8.284;2023-02-01T04:45:35;9.77;;;4.40;;
32096;SDS011;18610;49.916;8.284;2023-02-01T04:48:01;10.18;;;4.20;;
32096;SDS011;18610;49.916;8.284;2023-02-01T04:50:28;10.65;;;4.72;;
32096;SDS011;18610;49.916;8.284;2023-02-01T04:52:55;8.90;;;4.78;;
32096;SDS011;18610;49.916;8.284;2023-02-01T04:55:22;73.10;;;29.25;;
32096;SDS011;18610;49.916;8.284;2023-02-01T04:57:48;28.02;;;11.27;;
32096;SDS011;18610;49.916;8.284;2023-02-01T05:00:17;14.50;;;5.10;;
32096;SDS011;18610;49.916;8.284;2023-02-01T05:02:44;22.08;;;8.18;;
32096;SDS011;18610;49.916;8.284;2023-02-01T05:05:11;11.07;;;4.70;;
32096;SDS011;18610;49.916;8.284;2023-02-01T05:07:37;18.23;;;3.90;;
32096;SDS011;18610;49.916;8.284;2023-02-01T05:10:05;18.80;;;4.25;;
32096;SDS011;18610;49.916;8.284;2023-02-01T05:12:32;11.93;;;4.15;;
32096;SDS011;18610;49.916;8.284;2023-02-01T05:15:17;10.75;;;4.28;;
32096;SDS011;18610;49.916;8.284;2023-02-01T05:17:44;14.35;;;3.15;;
32096;SDS011;18610;49.916;8.284;2023-02-01T05:20:11;15.30;;;3.75;;
32096;SDS011;18610;49.916;8.284;2023-02-01T05:22:37;19.00;;;4.35;;
32096;SDS011;18610;49.916;8.284;2023-02-01T05:25:04;16.20;;;3.55;;
32096;SDS011;18610;49.916;8.284;2023-02-01T05:27:31;11.77;;;3.42;;
32096;SDS011;18610;49.916;8.284;2023-02-01T05:29:58;11.40;;;3.08;;
32096;SDS011;18610;49.916;8.284;2023-02-01T05:32:26;6.55;;;2.17;;
32096;SDS011;18610;49.916;8.284;2023-02-01T05:34:53;10.73;;;2.42;;
32096;SDS011;18610;49.916;8.284;2023-02-01T05:37:20;5.70;;;1.88;;
32096;SDS011;18610;49.916;8.284;2023-02-01T05:39:46;6.25;;;1.92;;
32096;SDS011;18610;49.916;8.284;2023-02-01T05:42:13;3.40;;;1.58;;
32096;SDS011;18610;49.916;8.284;2023-02-01T05:44:41;9.20;;;1.83;;
32096;SDS011;18610;49.916;8.284;2023-02-01T05:47:08;2.30;;;1.10;;
32096;SDS011;18610;49.916;8.284;2023-02-01T05:49:37;5.35;;;1.52;;
32096;SDS011;18610;49.916;8.284;2023-02-01T05:52:03;3.63;;;1.52;;
32096;SDS011;18610;49.916;8.284;2023-02-01T05:54:30;5.28;;;1.77;;
32096;SDS011;18610;49.916;8.284;2023-02-01T05:56:57;4.28;;;1.73;;
32096;SDS011;18610;49.916;8.284;2023-02-01T05:59:24;5.63;;;1.95;;
32096;SDS011;18610;49.916;8.284;2023-02-01T06:01:51;8.70;;;2.40;;
32096;SDS011;18610;49.916;8.284;2023-02-01T06:04:18;5.68;;;1.90;;
32096;SDS011;18610;49.916;8.284;2023-02-01T06:06:46;6.90;;;1.95;;
32096;SDS011;18610;49.916;8.284;2023-02-01T06:09:15;7.63;;;1.92;;
32096;SDS011;18610;49.916;8.284;2023-02-01T06:11:42;7.32;;;2.20;;
32096;SDS011;18610;49.916;8.284;2023-02-01T06:14:09;7.95;;;2.67;;
32096;SDS011;18610;49.916;8.284;2023-02-01T06:16:35;9.68;;;2.20;;
32096;SDS011;18610;49.916;8.284;2023-02-01T06:19:02;8.23;;;1.98;;
32096;SDS011;18610;49.916;8.284;2023-02-01T06:21:29;9.15;;;2.40;;
32096;SDS011;18610;49.916;8.284;2023-02-01T06:23:57;8.95;;;3.00;;
32096;SDS011;18610;49.916;8.284;2023-02-01T06:26:24;11.98;;;3.33;;
32096;SDS011;18610;49.916;8.284;2023-02-01T06:28:51;13.73;;;3.15;;
32096;SDS011;18610;49.916;8.284;2023-02-01T06:31:18;19.10;;;4.60;;
32096;SDS011;18610;49.916;8.284;2023-02-01T06:33:44;14.93;;;4.07;;
32096;SDS011;18610;49.916;8.284;2023-02-01T06:36:12;20.05;;;4.50;;
32096;SDS011;18610;49.916;8.284;2023-02-01T06:38:40;20.25;;;4.82;;
32096;SDS011;18610;49.916;8.284;2023-02-01T06:41:09;15.93;;;4.43;;
32096;SDS011;18610;49.916;8.284;2023-02-01T06:43:36;20.92;;;4.43;;
32096;SDS011;18610;49.916;8.284;2023-02-01T06:46:04;12.40;;;3.72;;
32096;SDS011;18610;49.916;8.284;2023-02-01T06:48:33;26.38;;;3.10;;
32096;SDS011;18610;49.916;8.284;2023-02-01T06:50:59;11.98;;;2.60;;
32096;SDS011;18610;49.916;8.284;2023-02-01T06:53:26;16.92;;;3.80;;
32096;SDS011;18610;49.916;8.284;2023-02-01T06:55:53;15.63;;;3.28;;
32096;SDS011;18610;49.916;8.284;2023-02-01T06:58:22;15.93;;;3.08;;
32096;SDS011;18610;49.916;8.284;2023-02-01T07:00:49;16.83;;;3.67;;
32096;SDS011;18610;49.916;8.284;2023-02-01T07:03:18;11.95;;;3.40;;
32096;SDS011;18610;49.916;8.284;2023-02-01T07:05:45;13.43;;;2.78;;
32096;SDS011;18610;49.916;8.284;2023-02-01T07:08:12;15.98;;;4.00;;
32096;SDS011;18610;49.916;8.284;2023-02-01T07:10:39;18.70;;;4.07;;
32096;SDS011;18610;49.916;8.284;2023-02-01T07:13:06;22.65;;;3.80;;
32096;SDS011;18610;49.916;8.284;2023-02-01T07:15:34;9.57;;;3.63;;
32096;SDS011;18610;49.916;8.284;2023-02-01T07:18:01;17.25;;;4.70;;
32096;SDS011;18610;49.916;8.284;2023-02-01T07:20:28;19.58;;;5.32;;
32096;SDS011;18610;49.916;8.284;2023-02-01T07:22:55;27.20;;;4.95;;
32096;SDS011;18610;49.916;8.284;2023-02-01T07:25:22;22.67;;;5.60;;
32096;SDS011;18610;49.916;8.284;2023-02-01T07:27:49;21.15;;;5.53;;
32096;SDS011;18610;49.916;8.284;2023-02-01T07:30:16;24.60;;;6.28;;
32096;SDS011;18610;49.916;8.284;2023-02-01T07:32:45;35.83;;;11.20;;
32096;SDS011;18610;49.916;8.284;2023-02-01T07:35:11;38.13;;;12.77;;
32096;SDS011;18610;49.916;8.284;2023-02-01T07:37:39;37.88;;;9.95;;
32096;SDS011;18610;49.916;8.284;2023-02-01T07:40:06;51.60;;;17.40;;
32096;SDS011;18610;49.916;8.284;2023-02-01T07:42:34;32.22;;;9.70;;
32096;SDS011;18610;49.916;8.284;2023-02-01T07:45:01;42.10;;;11.18;;
32096;SDS011;18610;49.916;8.284;2023-02-01T07:47:28;73.53;;;25.17;;
32096;SDS011;18610;49.916;8.284;2023-02-01T07:49:56;36.28;;;12.70;;
32096;SDS011;18610;49.916;8.284;2023-02-01T07:52:23;39.80;;;13.02;;
32096;SDS011;18610;49.916;8.284;2023-02-01T07:54:50;24.02;;;5.57;;
32096;SDS011;18610;49.916;8.284;2023-02-01T07:57:16;34.85;;;8.10;;
32096;SDS011;18610;49.916;8.284;2023-02-01T07:59:43;33.05;;;6.38;;
32096;SDS011;18610;49.916;8.284;2023-02-01T08:02:24;35.35;;;7.28;;
32096;SDS011;18610;49.916;8.284;2023-02-01T08:04:50;27.00;;;5.95;;
32096;SDS011;18610;49.916;8.284;2023-02-01T08:07:18;34.90;;;6.82;;
32096;SDS011;18610;49.916;8.284;2023-02-01T08:09:45;40.97;;;12.15;;
32096;SDS011;18610;49.916;8.284;2023-02-01T08:12:12;22.83;;;4.55;;
32096;SDS011;18610;49.916;8.284;2023-02-01T08:14:38;25.45;;;5.10;;
32096;SDS011;18610;49.916;8.284;2023-02-01T08:17:06;25.85;;;5.65;;
32096;SDS011;18610;49.916;8.284;2023-02-01T08:19:33;18.67;;;5.15;;
32096;SDS011;18610;49.916;8.284;2023-02-01T08:22:00;65.80;;;22.52;;
32096;SDS011;18610;49.916;8.284;2023-02-01T08:24:32;43.10;;;14.70;;
32096;SDS011;18610;49.916;8.284;2023-02-01T08:27:00;27.98;;;7.05;;
32096;SDS011;18610;49.916;8.284;2023-02-01T08:29:27;31.23;;;6.05;;
32096;SDS011;18610;49.916;8.284;2023-02-01T08:31:53;35.05;;;8.10;;
32096;SDS011;18610;49.916;8.284;2023-02-01T08:34:20;42.05;;;9.88;;
32096;SDS011;18610;49.916;8.284;2023-02-01T08:36:47;82.22;;;23.70;;
32096;SDS011;18610;49.916;8.284;2023-02-01T08:39:14;49.70;;;12.75;;
32096;SDS011;18610;49.916;8.284;2023-02-01T08:41:42;43.25;;;5.97;;
32096;SDS011;18610;49.916;8.284;2023-02-01T08:44:28;44.40;;;11.52;;
32096;SDS011;18610;49.916;8.284;2023-02-01T08:46:55;82.20;;;28.15;;
32096;SDS011;18610;49.916;8.284;2023-02-01T08:49:22;48.80;;;15.68;;
32096;SDS011;18610;49.916;8.284;2023-02-01T08:51:48;51.15;;;17.10;;
32096;SDS011;18610;49.916;8.284;2023-02-01T08:54:15;33.92;;;6.32;;
32096;SDS011;18610;49.916;8.284;2023-02-01T08:56:43;55.58;;;13.80;;
32096;SDS011;18610;49.916;8.284;2023-02-01T08:59:10;37.17;;;6.55;;
32096;SDS011;18610;49.916;8.284;2023-02-01T09:01:37;24.33;;;6.30;;
32096;SDS011;18610;49.916;8.284;2023-02-01T09:04:04;30.23;;;7.30;;
32096;SDS011;18610;49.916;8.284;2023-02-01T09:06:30;25.33;;;6.45;;
32096;SDS011;18610;49.916;8.284;2023-02-01T09:08:57;22.85;;;5.78;;
32096;SDS011;18610;49.916;8.284;2023-02-01T09:11:24;34.75;;;9.40;;
32096;SDS011;18610;49.916;8.284;2023-02-01T09:13:53;28.77;;;7.15;;
32096;SDS011;18610;49.916;8.284;2023-02-01T09:16:19;19.95;;;4.32;;
32096;SDS011;18610;49.916;8.284;2023-02-01T09:18:46;22.52;;;4.45;;
32096;SDS011;18610;49.916;8.284;2023-02-01T09:21:13;18.17;;;4.13;;
32096;SDS011;18610;49.916;8.284;2023-02-01T09:23:39;32.70;;;5.30;;
32096;SDS011;18610;49.916;8.284;2023-02-01T09:26:06;21.92;;;4.85;;
32096;SDS011;18610;49.916;8.284;2023-02-01T09:28:33;16.00;;;3.08;;
32096;SDS011;18610;49.916;8.284;2023-02-01T09:31:03;22.35;;;3.72;;
32096;SDS011;18610;49.916;8.284;2023-02-01T09:33:29;24.20;;;3.88;;
32096;SDS011;18610;49.916;8.284;2023-02-01T09:35:56;18.33;;;3.92;;
32096;SDS011;18610;49.916;8.284;2023-02-01T09:38:23;35.38;;;6.28;;
32096;SDS011;18610;49.916;8.284;2023-02-01T09:40:52;23.77;;;3.63;;
32096;SDS011;18610;49.916;8.284;2023-02-01T09:43:21;26.35;;;4.35;;
32096;SDS011;18610;49.916;8.284;2023-02-01T09:45:59;25.33;;;3.47;;
32096;SDS011;18610;49.916;8.284;2023-02-01T09:48:37;30.48;;;4.13;;
32096;SDS011;18610;49.916;8.284;2023-02-01T09:51:06;25.88;;;4.45;;
32096;SDS011;18610;49.916;8.284;2023-02-01T09:53:41;22.23;;;4.03;;
32096;SDS011;18610;49.916;8.284;2023-02-01T09:56:11;29.55;;;5.00;;
32096;SDS011;18610;49.916;8.284;2023-02-01T09:58:41;17.80;;;3.00;;
32096;SDS011;18610;49.916;8.284;2023-02-01T10:01:13;22.48;;;3.65;;
32096;SDS011;18610;49.916;8.284;2023-02-01T10:03:45;19.20;;;3.83;;
32096;SDS011;18610;49.916;8.284;2023-02-01T10:06:21;20.88;;;3.53;;
32096;SDS011;18610;49.916;8.284;2023-02-01T10:09:04;21.52;;;4.38;;
32096;SDS011;18610;49.916;8.284;2023-02-01T10:11:42;24.15;;;3.55;;
32096;SDS011;18610;49.916;8.284;2023-02-01T10:14:28;17.80;;;3.50;;
32096;SDS011;18610;49.916;8.284;2023-02-01T10:17:11;17.02;;;3.22;;
32096;SDS011;18610;49.916;8.284;2023-02-01T10:19:48;15.90;;;3.72;;
32096;SDS011;18610;49.916;8.284;2023-02-01T10:22:24;20.35;;;3.10;;
32096;SDS011;18610;49.916;8.284;2023-02-01T10:25:03;17.73;;;3.22;;
32096;SDS011;18610;49.916;8.284;2023-02-01T10:27:34;16.75;;;3.03;;
32096;SDS011;18610;49.916;8.284;2023-02-01T10:30:04;27.58;;;3.95;;
32096;SDS011;18610;49.916;8.284;2023-02-01T10:32:41;17.83;;;3.33;;
32096;SDS011;18610;49.916;8.284;2023-02-01T10:35:10;26.30;;;4.22;;
32096;SDS011;18610;49.916;8.284;2023-02-01T10:37:41;20.10;;;3.43;;
32096;SDS011;18610;49.916;8.284;2023-02-01T10:40:12;26.02;;;4.25;;
32096;SDS011;18610;49.916;8.284;2023-02-01T10:42:43;30.90;;;4.55;;
32096;SDS011;18610;49.916;8.284;2023-02-01T10:45:12;31.85;;;4.28;;
32096;SDS011;18610;49.916;8.284;2023-02-01T10:47:42;26.33;;;4.63;;
32096;SDS011;18610;49.916;8.284;2023-02-01T10:50:13;26.75;;;3.20;;
32096;SDS011;18610;49.916;8.284;2023-02-01T10:52:45;18.00;;;4.10;;
32096;SDS011;18610;49.916;8.284;2023-02-01T10:55:30;22.13;;;3.78;;
32096;SDS011;18610;49.916;8.284;2023-02-01T10:58:00;30.85;;;4.53;;
32096;SDS011;18610;49.916;8.284;2023-02-01T11:00:42;32.60;;;4.80;;
32096;SDS011;18610;49.916;8.284;2023-02-01T11:03:32;20.95;;;3.40;;
32096;SDS011;18610;49.916;8.284;2023-02-01T11:06:00;21.88;;;3.22;;
32096;SDS011;18610;49.916;8.284;2023-02-01T11:08:30;33.75;;;4.20;;
32096;SDS011;18610;49.916;8.284;2023-02-01T11:10:58;23.42;;;3.80;;
32096;SDS011;18610;49.916;8.284;2023-02-01T11:13:30;22.27;;;4.13;;
32096;SDS011;18610;49.916;8.284;2023-02-01T11:16:01;27.90;;;3.83;;
32096;SDS011;18610;49.916;8.284;2023-02-01T11:18:31;29.05;;;4.10;;
32096;SDS011;18610;49.916;8.284;2023-02-01T11:21:01;19.52;;;3.28;;
32096;SDS011;18610;49.916;8.284;2023-02-01T11:23:30;27.15;;;4.90;;
32096;SDS011;18610;49.916;8.284;2023-02-01T11:26:01;21.15;;;3.97;;
32096;SDS011;18610;49.916;8.284;2023-02-01T11:28:37;23.85;;;4.35;;
32096;SDS011;18610;49.916;8.284;2023-02-01T11:31:07;21.17;;;4.30;;
32096;SDS011;18610;49.916;8.284;2023-02-01T11:33:38;18.20;;;3.47;;
32096;SDS011;18610;49.916;8.284;2023-02-01T11:36:11;29.80;;;3.53;;
32096;SDS011;18610;49.916;8.284;2023-02-01T11:38:41;30.63;;;3.67;;
32096;SDS011;18610;49.916;8.284;2023-02-01T11:41:20;31.95;;;9.27;;
32096;SDS011;18610;49.916;8.284;2023-02-01T11:43:54;38.10;;;8.20;;
32096;SDS011;18610;49.916;8.284;2023-02-01T11:46:24;21.70;;;5.20;;
32096;SDS011;18610;49.916;8.284;2023-02-01T11:48:56;28.77;;;4.05;;
32096;SDS011;18610;49.916;8.284;2023-02-01T11:51:42;19.92;;;3.53;;
32096;SDS011;18610;49.916;8.284;2023-02-01T11:54:27;21.63;;;4.75;;
32096;SDS011;18610;49.916;8.284;2023-02-01T11:57:05;23.63;;;3.95;;
32096;SDS011;18610;49.916;8.284;2023-02-01T11:59:49;25.90;;;4.43;;
32096;SDS011;18610;49.916;8.284;2023-02-01T12:05:14;19.67;;;3.70;;
32096;SDS011;18610;49.916;8.284;2023-02-01T12:07:54;30.48;;;4.32;;
32096;SDS011;18610;49.916;8.284;2023-02-01T12:10:38;29.65;;;3.65;;
32096;SDS011;18610;49.916;8.284;2023-02-01T12:13:15;22.77;;;3.13;;
32096;SDS011;18610;49.916;8.284;2023-02-01T12:15:52;27.08;;;4.10;;
32096;SDS011;18610;49.916;8.284;2023-02-01T12:18:33;28.55;;;3.92;;
32096;SDS011;18610;49.916;8.284;2023-02-01T12:21:16;41.88;;;11.57;;
32096;SDS011;18610;49.916;8.284;2023-02-01T12:24:05;23.80;;;4.03;;
32096;SDS011;18610;49.916;8.284;2023-02-01T12:26:58;19.17;;;3.58;;
32096;SDS011;18610;49.916;8.284;2023-02-01T12:32:31;19.17;;;4.13;;
32096;SDS011;18610;49.916;8.284;2023-02-01T12:35:20;25.35;;;5.47;;
32096;SDS011;18610;49.916;8.284;2023-02-01T12:38:03;17.98;;;4.75;;
32096;SDS011;18610;49.916;8.284;2023-02-01T12:40:43;25.52;;;3.75;;
32096;SDS011;18610;49.916;8.284;2023-02-01T12:43:22;19.60;;;4.35;;
32096;SDS011;18610;49.916;8.284;2023-02-01T12:46:02;24.58;;;3.67;;
32096;SDS011;18610;49.916;8.284;2023-02-01T12:48:32;19.65;;;4.93;;
32096;SDS011;18610;49.916;8.284;2023-02-01T12:51:01;25.65;;;4.35;;
32096;SDS011;18610;49.916;8.284;2023-02-01T12:53:33;22.92;;;5.45;;
32096;SDS011;18610;49.916;8.284;2023-02-01T12:56:11;26.25;;;4.20;;
32096;SDS011;18610;49.916;8.284;2023-02-01T12:58:41;30.08;;;5.88;;
32096;SDS011;18610;49.916;8.284;2023-02-01T13:01:12;28.10;;;4.95;;
32096;SDS011;18610;49.916;8.284;2023-02-01T13:03:44;24.67;;;3.58;;
32096;SDS011;18610;49.916;8.284;2023-02-01T13:06:19;19.88;;;4.60;;
32096;SDS011;18610;49.916;8.284;2023-02-01T13:08:50;21.33;;;3.55;;
32096;SDS011;18610;49.916;8.284;2023-02-01T13:11:24;27.35;;;3.85;;
32096;SDS011;18610;49.916;8.284;2023-02-01T13:13:58;36.45;;;4.38;;
32096;SDS011;18610;49.916;8.284;2023-02-01T13:16:30;26.67;;;3.40;;
32096;SDS011;18610;49.916;8.284;2023-02-01T13:19:03;21.77;;;4.22;;
32096;SDS011;18610;49.916;8.284;2023-02-01T13:21:43;20.05;;;4.13;;
32096;SDS011;18610;49.916;8.284;2023-02-01T13:24:19;23.15;;;4.43;;
32096;SDS011;18610;49.916;8.284;2023-02-01T13:26:53;23.80;;;4.60;;
32096;SDS011;18610;49.916;8.284;2023-02-01T13:29:20;24.55;;;4.13;;
32096;SDS011;18610;49.916;8.284;2023-02-01T13:31:56;22.45;;;4.10;;
32096;SDS011;18610;49.916;8.284;2023-02-01T13:34:56;23.85;;;4.18;;
32096;SDS011;18610;49.916;8.284;2023-02-01T13:37:59;20.27;;;3.67;;
32096;SDS011;18610;49.916;8.284;2023-02-01T13:40:39;24.98;;;3.58;;
32096;SDS011;18610;49.916;8.284;2023-02-01T13:43:11;23.85;;;3.80;;
32096;SDS011;18610;49.916;8.284;2023-02-01T13:45:45;23.42;;;3.63;;
32096;SDS011;18610;49.916;8.284;2023-02-01T13:48:18;33.65;;;5.05;;
32096;SDS011;18610;49.916;8.284;2023-02-01T13:50:50;26.27;;;3.53;;
32096;SDS011;18610;49.916;8.284;2023-02-01T13:53:21;26.95;;;4.45;;
32096;SDS011;18610;49.916;8.284;2023-02-01T13:55:56;34.42;;;6.45;;
32096;SDS011;18610;49.916;8.284;2023-02-01T13:58:30;23.13;;;4.38;;
32096;SDS011;18610;49.916;8.284;2023-02-01T14:07:15;21.63;;;4.07;;
32096;SDS011;18610;49.916;8.284;2023-02-01T14:09:47;24.33;;;3.65;;
32096;SDS011;18610;49.916;8.284;2023-02-01T14:15:19;25.73;;;3.30;;
32096;SDS011;18610;49.916;8.284;2023-02-01T14:17:48;27.23;;;4.72;;
32096;SDS011;18610;49.916;8.284;2023-02-01T14:23:21;32.25;;;8.48;;
32096;SDS011;18610;49.916;8.284;2023-02-01T14:26:06;40.20;;;8.02;;
32096;SDS011;18610;49.916;8.284;2023-02-01T14:28:41;24.52;;;6.25;;
32096;SDS011;18610;49.916;8.284;2023-02-01T14:34:14;23.75;;;3.38;;
32096;SDS011;18610;49.916;8.284;2023-02-01T14:36:48;14.93;;;3.35;;
32096;SDS011;18610;49.916;8.284;2023-02-01T14:39:24;22.33;;;3.17;;
32096;SDS011;18610;49.916;8.284;2023-02-01T14:41:57;11.68;;;3.05;;
32096;SDS011;18610;49.916;8.284;2023-02-01T14:44:32;19.20;;;3.38;;
32096;SDS011;18610;49.916;8.284;2023-02-01T14:47:02;19.92;;;3.55;;
32096;SDS011;18610;49.916;8.284;2023-02-01T14:52:51;17.92;;;4.03;;
32096;SDS011;18610;49.916;8.284;2023-02-01T14:55:40;16.58;;;3.15;;
32096;SDS011;18610;49.916;8.284;2023-02-01T14:58:13;16.92;;;3.30;;
32096;SDS011;18610;49.916;8.284;2023-02-01T15:00:49;17.75;;;3.97;;
32096;SDS011;18610;49.916;8.284;2023-02-01T15:03:29;17.27;;;3.00;;
32096;SDS011;18610;49.916;8.284;2023-02-01T15:06:20;22.23;;;4.57;;
32096;SDS011;18610;49.916;8.284;2023-02-01T15:08:52;20.52;;;3.45;;
32096;SDS011;18610;49.916;8.284;2023-02-01T15:11:21;13.30;;;3.33;;
32096;SDS011;18610;49.916;8.284;2023-02-01T15:13:48;21.00;;;2.83;;
32096;SDS011;18610;49.916;8.284;2023-02-01T15:16:20;15.35;;;3.10;;
32096;SDS011;18610;49.916;8.284;2023-02-01T15:18:48;17.13;;;2.80;;
32096;SDS011;18610;49.916;8.284;2023-02-01T15:21:16;16.23;;;2.58;;
32096;SDS011;18610;49.916;8.284;2023-02-01T15:23:44;27.50;;;3.67;;
32096;SDS011;18610;49.916;8.284;2023-02-01T15:26:23;17.02;;;4.70;;
32096;SDS011;18610;49.916;8.284;2023-02-01T15:28:51;30.23;;;3.72;;